ADDS METAR Data INFO
IDs: Format: Raw Decoded Include TAF

Data at: 1015 UTC 14 Dec 2017

KROW 140951Z AUTO 32004KT 10SM CLR M01/M12 A3000 RMK AO2 SLP133 T10061117
KROW 140851Z AUTO 35005KT 10SM CLR M01/M12 A2998 RMK AO2 SLP128 T10061117 55003
KROW 140751Z AUTO 30004KT 10SM CLR 02/M12 A2997 RMK AO2 SLP126 T00171117
KROW 140651Z AUTO 30006KT 10SM CLR 02/M12 A2998 RMK AO2 SLP135 T00221117 401941067
KROW 140551Z AUTO 26003KT 10SM CLR 02/M12 A2999 RMK AO2 SLP142 T00171117 10150 20006 51004
KROW 140451Z AUTO 34006KT 10SM CLR 04/M11 A2999 RMK AO2 SLP140 T00441111
KROW 140351Z 31006KT 10SM CLR 04/M11 A2999 RMK AO2 SLP144 T00441111
KROW 140251Z 30005KT 10SM CLR 06/M11 A2998 RMK AO2 SLP147 T00561111 51005
KROW 140151Z 33003KT 10SM CLR 07/M11 A2998 RMK AO2 SLP148 T00671111
KROW 140051Z 32003KT 10SM CLR 11/M11 A2997 RMK AO2 SLP143 T01111106
KROW 132351Z 28003KT 10SM CLR 15/M11 A2996 RMK AO2 SLP132 T01501111 10194 20089 55007
KROW 132251Z 01008KT 10SM CLR 18/M11 A2996 RMK AO2 SLP126 T01781111
KROW 132151Z 02010KT 10SM CLR 19/M11 A2997 RMK AO2 SLP126 T01891111
KROW 132051Z 01009KT 10SM CLR 18/M11 A2999 RMK AO2 SLP136 T01781106 56029
KROW 131951Z 19003KT 10SM CLR 16/M10 A2999 RMK AO2 SLP138 T01611100
KROW 131851Z 00000KT 10SM CLR 11/M09 A3003 RMK AO2 SLP150 T01111094
KROW 131751Z 08003KT 6SM HZ FEW003 09/M09 A3008 RMK AO2 SLP174 T00891094 10089 21067 58002
KROW 131651Z 00000KT 10SM CLR 06/M11 A3009 RMK AO2 SLP186 T00611106
KROW 131551Z 00000KT 10SM CLR 03/M13 A3009 RMK AO2 SLP185 T00281128
KROW 131451Z 24003KT 10SM CLR M02/M13 A3009 RMK AO2 SLP191 T10171133 56003
KROW 131351Z 34004KT 10SM CLR M04/M13 A3009 RMK AO2 SLP191 T10391128
KROW 131251Z 01005KT 10SM CLR M06/M14 A3009 RMK AO2 SLP190 T10561139
KROW 131151Z AUTO 27003KT 10SM CLR M04/M14 A3010 RMK AO2 SLP184 T10391144 10050 21056 56014
KROW 131051Z AUTO 27006KT 10SM CLR M03/M14 A3011 RMK AO2 SLP183 T10331139
KROW 130951Z AUTO 30003KT 10SM CLR M02/M14 A3012 RMK AO2 SLP184 T10221139
KROW 130851Z AUTO 25003KT 10SM CLR M04/M15 A3014 RMK AO2 SLP194 T10441150 56019
KROW 130751Z AUTO 00000KT 10SM CLR M03/M14 A3015 RMK AO2 SLP195 T10281144
KROW 130651Z AUTO 31005KT 10SM CLR 03/M13 A3018 RMK AO2 SLP198 T00331133 401561033
KROW 130551Z AUTO 27007KT 10SM CLR 01/M13 A3021 RMK AO2 SLP214 T00111133 10100 21033 56016
KROW 130451Z AUTO 20004KT 10SM CLR M02/M14 A3022 RMK AO2 SLP227 T10171144
KROW 130351Z AUTO 00000KT 10SM CLR 02/M13 A3024 RMK AO2 SLP236 T00171133
KROW 130251Z 22004KT 10SM CLR 01/M14 A3026 RMK AO2 SLP247 T00111139 58007
KROW 130151Z 18006KT 10SM CLR 03/M14 A3027 RMK AO2 SLP252 T00331139
KROW 130051Z 16006KT 10SM CLR 07/M14 A3028 RMK AO2 SLP249 T00671139
KROW 122351Z 16007KT 10SM CLR 10/M14 A3028 RMK AO2 SLP244 T01001139 10156 20100 56023
KROW 122251Z 17013KT 10SM CLR 14/M14 A3031 RMK AO2 SLP245 T01391139